Angostura, New Mexico
Current Conditions -  °F | °C
As of 8:15 AM on Friday 31 Oct 2014 (Local Time) from KSKX Reporting Station
Clear Clear  
Wind Chill:   Ceiling: Unl
Heat Index:   Visibility: 10mi
Dew Point: -9°   Wind: 0mph
Humidity: 51%   Direction: NA
Pressure: 30.46"   Gusts: NA
Location:  36.1892°N, 105.688°W
Report Text: KSKX 311415Z AUTO 00000KT 10SM CLR 00/M09 A3046 RMK AO1
Loading
Personal Weather Stations






























Interactive Weather Map
Tropical Storm Tracking
New forecast layout! Learn more

10-Day Weather Forecast

Advertisements
Track Severe Weather on mobile